createdAt,value
2023-08-27T00:00:12.791Z,18.20
2023-08-27T00:02:42.453Z,18.30
2023-08-27T00:05:10.156Z,18.40
2023-08-27T00:07:38.829Z,18.50
2023-08-27T00:10:06.342Z,18.50
2023-08-27T00:12:33.424Z,18.50
2023-08-27T00:15:00.393Z,18.30
2023-08-27T00:17:27.476Z,18.10
2023-08-27T00:19:55.415Z,18.10
2023-08-27T00:22:22.515Z,18.20
2023-08-27T00:24:49.517Z,18.20
2023-08-27T00:27:16.940Z,18.30
2023-08-27T00:29:43.846Z,18.30
2023-08-27T00:32:23.177Z,18.30
2023-08-27T00:34:52.576Z,18.30
2023-08-27T00:37:19.889Z,18.30
2023-08-27T00:39:46.881Z,18.20
2023-08-27T00:42:13.940Z,17.90
2023-08-27T00:44:40.679Z,17.90
2023-08-27T00:47:08.311Z,17.80
2023-08-27T00:49:35.402Z,17.80
2023-08-27T00:52:03.034Z,17.70
2023-08-27T00:54:30.303Z,17.40
2023-08-27T00:56:57.241Z,17.20
2023-08-27T00:59:24.089Z,17.10
2023-08-27T01:01:52.566Z,17.10
2023-08-27T01:04:19.340Z,17.00
2023-08-27T01:06:46.130Z,16.90
2023-08-27T01:09:33.318Z,17.00
2023-08-27T01:12:04.274Z,17.00
2023-08-27T01:14:34.607Z,17.00
2023-08-27T01:17:04.287Z,17.20
2023-08-27T01:19:31.950Z,17.30
2023-08-27T01:21:58.785Z,17.30
2023-08-27T01:24:25.583Z,17.40
2023-08-27T01:26:54.987Z,17.40
2023-08-27T01:29:36.215Z,17.40
2023-08-27T01:32:13.552Z,17.40
2023-08-27T01:34:42.449Z,17.40
2023-08-27T01:37:11.751Z,17.40
2023-08-27T01:39:39.132Z,17.40
2023-08-27T01:42:06.644Z,17.30
2023-08-27T01:44:33.420Z,17.20
2023-08-27T01:47:00.646Z,17.10
2023-08-27T01:49:27.715Z,17.10
2023-08-27T01:51:54.481Z,17.00
2023-08-27T01:54:21.381Z,17.00
2023-08-27T01:56:48.228Z,17.10
2023-08-27T01:59:14.989Z,17.10
2023-08-27T02:01:42.326Z,17.10
2023-08-27T02:04:09.017Z,17.20
2023-08-27T02:06:36.128Z,17.20
2023-08-27T02:09:03.936Z,17.20
2023-08-27T02:11:30.690Z,17.30
2023-08-27T02:13:57.569Z,17.30
2023-08-27T02:16:24.868Z,17.30
2023-08-27T02:18:51.773Z,17.30
2023-08-27T02:21:18.807Z,17.30
2023-08-27T02:23:45.741Z,17.30
2023-08-27T02:26:13.245Z,17.30
2023-08-27T02:28:40.202Z,17.30
2023-08-27T02:31:09.309Z,17.20
2023-08-27T02:33:36.571Z,17.10
2023-08-27T02:36:03.499Z,17.10
2023-08-27T02:38:30.485Z,17.00
2023-08-27T02:40:57.326Z,17.00
2023-08-27T02:43:24.205Z,16.80
2023-08-27T02:45:51.584Z,16.90
2023-08-27T02:48:18.389Z,16.90
2023-08-27T02:50:45.402Z,17.00
2023-08-27T02:53:12.271Z,16.80
2023-08-27T02:55:39.414Z,16.70
2023-08-27T02:58:06.260Z,16.40
2023-08-27T03:00:33.150Z,16.40
2023-08-27T03:03:00.271Z,16.50
2023-08-27T03:05:27.466Z,16.50
2023-08-27T03:07:54.605Z,16.60
2023-08-27T03:10:23.503Z,16.70
2023-08-27T03:12:50.412Z,16.70
2023-08-27T03:15:17.514Z,16.60
2023-08-27T03:17:44.525Z,16.70
2023-08-27T03:20:11.551Z,16.60
2023-08-27T03:22:38.627Z,16.60
2023-08-27T03:25:06.594Z,16.60
2023-08-27T03:27:36.676Z,16.50
2023-08-27T03:30:04.959Z,16.60
2023-08-27T03:32:32.159Z,16.60
2023-08-27T03:34:59.728Z,16.70
2023-08-27T03:37:26.744Z,16.70
2023-08-27T03:39:53.685Z,16.70
2023-08-27T03:42:20.392Z,16.70
2023-08-27T03:44:47.320Z,16.70
2023-08-27T03:47:14.071Z,16.70
2023-08-27T03:49:41.303Z,16.80
2023-08-27T03:52:08.092Z,16.90
2023-08-27T03:54:36.142Z,16.90
2023-08-27T03:57:03.026Z,17.00
2023-08-27T03:59:30.056Z,17.00
2023-08-27T04:01:58.030Z,17.00
2023-08-27T04:04:24.884Z,17.00
2023-08-27T04:06:51.971Z,17.00
2023-08-27T04:09:18.744Z,17.00
2023-08-27T04:11:45.456Z,17.10
2023-08-27T04:14:12.130Z,17.20
2023-08-27T04:16:39.064Z,17.20
2023-08-27T04:19:05.809Z,17.20
2023-08-27T04:21:32.709Z,17.20
2023-08-27T04:23:59.438Z,17.10
2023-08-27T04:26:26.350Z,17.10
2023-08-27T04:28:55.841Z,17.10
2023-08-27T04:31:23.178Z,17.10
2023-08-27T04:33:49.984Z,17.20
2023-08-27T04:36:16.993Z,17.20
2023-08-27T04:38:43.819Z,17.10
2023-08-27T04:41:10.726Z,17.00
2023-08-27T04:43:37.477Z,17.10
2023-08-27T04:46:06.019Z,17.10
2023-08-27T04:48:32.822Z,17.20
2023-08-27T04:51:00.499Z,17.20
2023-08-27T04:53:28.133Z,17.20
2023-08-27T04:55:55.122Z,17.30
2023-08-27T04:58:23.877Z,17.30
2023-08-27T05:00:58.972Z,17.30
2023-08-27T05:03:26.738Z,17.40
2023-08-27T05:05:57.275Z,17.50
2023-08-27T05:08:24.110Z,17.60
2023-08-27T05:10:51.075Z,17.60
2023-08-27T05:13:18.509Z,17.60
2023-08-27T05:15:45.586Z,17.70
2023-08-27T05:18:12.534Z,17.70
2023-08-27T05:20:39.784Z,17.80
2023-08-27T05:23:06.714Z,17.70
2023-08-27T05:25:36.058Z,17.80
2023-08-27T05:28:04.581Z,17.80
2023-08-27T05:30:31.615Z,17.90
2023-08-27T05:32:59.602Z,18.00
2023-08-27T05:35:27.465Z,18.00
2023-08-27T05:37:54.475Z,18.10
2023-08-27T05:40:21.269Z,18.10
2023-08-27T05:42:48.248Z,18.20
2023-08-27T05:45:15.105Z,18.20
2023-08-27T05:47:42.174Z,18.20
2023-08-27T05:50:09.457Z,18.20
2023-08-27T05:52:36.489Z,18.30
2023-08-27T05:55:03.422Z,18.40
2023-08-27T05:57:30.259Z,18.50
2023-08-27T05:59:57.420Z,18.50
2023-08-27T06:02:25.239Z,18.40
2023-08-27T06:04:52.456Z,18.40
2023-08-27T06:07:19.708Z,18.40
2023-08-27T06:09:47.124Z,18.40
2023-08-27T06:12:13.977Z,18.50
2023-08-27T06:14:40.788Z,18.50
2023-08-27T06:17:08.140Z,18.50
2023-08-27T06:19:47.746Z,18.50
2023-08-27T06:22:16.869Z,18.50
2023-08-27T06:24:43.784Z,18.50
2023-08-27T06:27:10.577Z,18.50
2023-08-27T06:29:38.050Z,18.60
2023-08-27T06:32:05.481Z,18.60
2023-08-27T06:34:35.654Z,18.50
2023-08-27T06:37:03.105Z,18.50
2023-08-27T06:39:30.100Z,18.60
2023-08-27T06:41:57.472Z,18.70
2023-08-27T06:44:26.443Z,18.80
2023-08-27T06:46:56.580Z,18.80
2023-08-27T06:49:23.579Z,18.80
2023-08-27T06:51:50.499Z,18.80
2023-08-27T06:54:18.335Z,18.90
2023-08-27T06:56:45.432Z,19.10
2023-08-27T06:59:15.445Z,19.40
2023-08-27T07:01:42.289Z,19.80
2023-08-27T07:04:10.032Z,21.50
2023-08-27T07:06:39.913Z,22.30
2023-08-27T07:09:06.957Z,22.30
2023-08-27T07:11:36.989Z,21.90
2023-08-27T07:14:04.072Z,21.80
2023-08-27T07:16:31.679Z,21.70
2023-08-27T07:18:58.457Z,21.80
2023-08-27T07:21:25.449Z,22.60
2023-08-27T07:23:52.382Z,22.80
2023-08-27T07:26:19.588Z,23.10
2023-08-27T07:28:47.222Z,23.50
2023-08-27T07:31:15.276Z,23.80
2023-08-27T07:33:42.080Z,25.80
2023-08-27T07:36:09.673Z,27.70
2023-08-27T07:38:42.336Z,29.30
2023-08-27T07:41:10.657Z,30.70
2023-08-27T07:43:37.551Z,31.90
2023-08-27T07:46:04.773Z,31.60
2023-08-27T07:48:33.053Z,32.00
2023-08-27T07:51:00.066Z,33.20
2023-08-27T07:53:27.027Z,32.00
2023-08-27T07:55:55.588Z,31.20
2023-08-27T07:58:23.013Z,32.20
2023-08-27T08:00:56.651Z,33.10
2023-08-27T08:03:24.731Z,32.30
2023-08-27T08:05:51.489Z,33.70
2023-08-27T08:08:18.971Z,35.10
2023-08-27T08:10:45.995Z,36.00
2023-08-27T08:13:12.949Z,35.50
2023-08-27T08:15:39.898Z,36.60
2023-08-27T08:18:06.985Z,36.80
2023-08-27T08:20:34.124Z,37.00
2023-08-27T08:23:00.901Z,36.30
2023-08-27T08:25:28.734Z,34.60
2023-08-27T08:27:55.470Z,33.60
2023-08-27T08:30:23.429Z,32.60
2023-08-27T08:32:50.247Z,31.30
2023-08-27T08:35:17.214Z,30.20
2023-08-27T08:37:43.953Z,29.30
2023-08-27T08:40:15.472Z,28.60
2023-08-27T08:43:01.229Z,28.10
2023-08-27T08:45:33.265Z,27.70
2023-08-27T08:48:04.629Z,27.20
2023-08-27T08:50:33.772Z,26.60
2023-08-27T08:53:02.278Z,25.90
2023-08-27T08:55:31.276Z,25.40
2023-08-27T08:58:03.392Z,25.00
2023-08-27T09:00:31.324Z,25.00
2023-08-27T09:03:03.171Z,24.90
2023-08-27T09:05:31.884Z,25.00
2023-08-27T09:07:59.401Z,25.40
2023-08-27T09:10:28.061Z,26.00
2023-08-27T09:12:57.361Z,27.70
2023-08-27T09:15:24.961Z,28.30
2023-08-27T09:17:51.956Z,28.00
2023-08-27T09:20:18.924Z,27.40
2023-08-27T09:22:46.238Z,27.00
2023-08-27T09:25:14.116Z,27.70
2023-08-27T09:27:42.007Z,27.90
2023-08-27T09:30:09.680Z,30.50
2023-08-27T09:32:36.504Z,32.00
2023-08-27T09:35:05.341Z,33.70
2023-08-27T09:37:40.667Z,35.60
2023-08-27T09:40:12.323Z,36.30
2023-08-27T09:42:40.267Z,36.90
2023-08-27T09:45:08.006Z,38.60
2023-08-27T09:47:37.748Z,37.70
2023-08-27T09:50:06.817Z,36.10
2023-08-27T09:52:34.536Z,37.70
2023-08-27T09:55:01.889Z,39.30
2023-08-27T09:57:32.166Z,38.20
2023-08-27T09:59:59.089Z,36.80
2023-08-27T10:02:26.124Z,36.10
2023-08-27T10:04:57.547Z,34.30
2023-08-27T10:07:24.628Z,32.50
2023-08-27T10:09:55.589Z,31.60
2023-08-27T10:12:22.911Z,32.30
2023-08-27T10:14:49.928Z,32.40
2023-08-27T10:17:17.249Z,31.80
2023-08-27T10:19:44.739Z,34.10
2023-08-27T10:22:13.064Z,36.10
2023-08-27T10:24:41.060Z,36.90
2023-08-27T10:27:08.288Z,35.80
2023-08-27T10:29:35.854Z,33.90
2023-08-27T10:32:04.105Z,32.20
2023-08-27T10:34:31.946Z,33.70
2023-08-27T10:37:06.382Z,36.30
2023-08-27T10:39:34.775Z,37.70
2023-08-27T10:42:01.722Z,39.20
2023-08-27T10:44:28.491Z,40.60
2023-08-27T10:47:16.132Z,41.50
2023-08-27T10:49:46.577Z,41.40
2023-08-27T10:52:22.028Z,40.50
2023-08-27T10:54:58.765Z,41.50
2023-08-27T10:57:25.857Z,39.60
2023-08-27T11:00:06.955Z,39.80
2023-08-27T11:02:59.423Z,38.80
2023-08-27T11:05:30.341Z,39.40
2023-08-27T11:08:01.228Z,40.20
2023-08-27T11:10:33.255Z,38.50
2023-08-27T11:13:00.536Z,36.70
2023-08-27T11:15:35.179Z,34.60
2023-08-27T11:18:22.464Z,32.80
2023-08-27T11:20:51.102Z,31.20
2023-08-27T11:23:17.903Z,29.90
2023-08-27T11:25:46.488Z,28.90
2023-08-27T11:28:14.002Z,28.40
2023-08-27T11:30:42.103Z,27.90
2023-08-27T11:33:15.477Z,27.40
2023-08-27T11:35:42.386Z,26.90
2023-08-27T11:38:11.579Z,26.60
2023-08-27T11:40:38.535Z,26.50
2023-08-27T11:43:05.254Z,26.40
2023-08-27T11:45:38.697Z,26.10
2023-08-27T11:48:07.224Z,25.80
2023-08-27T11:50:40.135Z,25.60
2023-08-27T11:53:13.275Z,25.40
2023-08-27T11:55:40.465Z,25.30
2023-08-27T11:58:07.733Z,25.10
2023-08-27T12:00:34.610Z,25.10
2023-08-27T12:03:02.070Z,25.00
2023-08-27T12:05:29.135Z,25.00
2023-08-27T12:07:56.164Z,25.10
2023-08-27T12:10:26.505Z,25.00
2023-08-27T12:12:53.512Z,24.90
2023-08-27T12:15:20.357Z,24.90
2023-08-27T12:17:48.488Z,25.00
2023-08-27T12:20:16.255Z,25.00
2023-08-27T12:22:46.555Z,25.00
2023-08-27T12:25:14.189Z,25.00
2023-08-27T12:27:42.229Z,25.00
2023-08-27T12:30:10.504Z,25.10
2023-08-27T12:32:37.595Z,25.10
2023-08-27T12:35:07.551Z,25.20
2023-08-27T12:37:36.982Z,25.40
2023-08-27T12:40:03.959Z,25.40
2023-08-27T12:42:30.853Z,25.30
2023-08-27T12:44:57.545Z,25.20
2023-08-27T12:47:24.532Z,25.30
2023-08-27T12:49:51.299Z,25.30
2023-08-27T12:52:18.847Z,25.50
2023-08-27T12:54:45.622Z,25.60
2023-08-27T12:57:12.555Z,25.50
2023-08-27T12:59:39.266Z,25.50
2023-08-27T13:02:08.302Z,25.40
2023-08-27T13:04:35.488Z,25.30
2023-08-27T13:07:02.421Z,25.30
2023-08-27T13:09:29.233Z,25.10
2023-08-27T13:11:56.213Z,24.90
2023-08-27T13:14:24.111Z,24.70
2023-08-27T13:16:50.976Z,24.40
2023-08-27T13:19:17.951Z,24.10
2023-08-27T13:21:48.227Z,23.50
2023-08-27T13:24:15.478Z,23.00
2023-08-27T13:26:42.254Z,22.60
2023-08-27T13:29:09.360Z,22.30
2023-08-27T13:31:36.243Z,21.90
2023-08-27T13:34:04.182Z,21.70
2023-08-27T13:36:31.660Z,21.60
2023-08-27T13:38:58.744Z,21.60
2023-08-27T13:41:25.918Z,21.90
2023-08-27T13:43:52.864Z,22.30
2023-08-27T13:46:19.617Z,22.70
2023-08-27T13:48:46.558Z,23.20
2023-08-27T13:51:13.533Z,23.50
2023-08-27T13:53:40.485Z,23.50
2023-08-27T13:56:07.267Z,23.40
2023-08-27T13:58:34.913Z,23.30
2023-08-27T14:01:01.898Z,23.20
2023-08-27T14:03:29.148Z,23.00
2023-08-27T14:05:57.168Z,22.90
2023-08-27T14:08:27.107Z,22.70
2023-08-27T14:10:54.166Z,22.60
2023-08-27T14:13:21.519Z,22.60
2023-08-27T14:15:48.632Z,22.70
2023-08-27T14:18:15.847Z,22.70
2023-08-27T14:20:42.827Z,22.50
2023-08-27T14:23:09.630Z,22.30
2023-08-27T14:25:37.453Z,22.10
2023-08-27T14:28:05.364Z,21.90
2023-08-27T14:30:32.339Z,21.80
2023-08-27T14:32:59.156Z,21.60
2023-08-27T14:35:26.476Z,21.60
2023-08-27T14:37:53.354Z,21.60
2023-08-27T14:40:20.306Z,21.60
2023-08-27T14:42:47.086Z,21.50
2023-08-27T14:45:13.977Z,21.50
2023-08-27T14:47:40.727Z,21.50
2023-08-27T14:50:08.462Z,21.50
2023-08-27T14:52:35.237Z,21.50
2023-08-27T14:55:04.301Z,21.70
2023-08-27T14:57:32.747Z,21.80
2023-08-27T14:59:59.691Z,21.90
2023-08-27T15:02:26.454Z,21.90
2023-08-27T15:04:53.471Z,21.90
2023-08-27T15:07:20.237Z,21.90
2023-08-27T15:09:48.157Z,21.90
2023-08-27T15:12:17.606Z,22.00
2023-08-27T15:14:45.484Z,22.00
2023-08-27T15:17:12.559Z,22.00
2023-08-27T15:19:39.828Z,22.00
2023-08-27T15:22:06.755Z,22.10
2023-08-27T15:24:33.582Z,22.20
2023-08-27T15:27:00.524Z,22.20
2023-08-27T15:29:27.364Z,22.20
2023-08-27T15:31:54.427Z,22.30
2023-08-27T15:34:21.237Z,22.50
2023-08-27T15:36:48.342Z,22.60
2023-08-27T15:39:15.090Z,22.60
2023-08-27T15:41:42.033Z,22.70
2023-08-27T15:44:08.829Z,22.80
2023-08-27T15:46:36.074Z,22.70
2023-08-27T15:49:04.054Z,22.60
2023-08-27T15:51:31.161Z,22.40
2023-08-27T15:53:57.971Z,22.30
2023-08-27T15:56:24.917Z,22.10
2023-08-27T15:58:55.256Z,22.10
2023-08-27T16:01:22.110Z,22.00
2023-08-27T16:03:48.888Z,21.80
2023-08-27T16:06:15.874Z,21.80
2023-08-27T16:08:42.666Z,21.70
2023-08-27T16:11:09.422Z,21.60
2023-08-27T16:13:36.523Z,21.50
2023-08-27T16:16:05.742Z,21.40
2023-08-27T16:18:32.786Z,21.40
2023-08-27T16:20:59.767Z,21.30
2023-08-27T16:23:27.661Z,21.20
2023-08-27T16:25:55.799Z,21.10
2023-08-27T16:28:22.641Z,21.10
2023-08-27T16:30:49.408Z,21.00
2023-08-27T16:33:16.438Z,20.90
2023-08-27T16:35:43.221Z,20.90
2023-08-27T16:38:10.535Z,20.80
2023-08-27T16:40:39.326Z,20.70
2023-08-27T16:43:07.360Z,20.70
2023-08-27T16:45:34.581Z,20.60
2023-08-27T16:48:02.242Z,20.60
2023-08-27T16:50:29.789Z,20.50
2023-08-27T16:52:58.665Z,20.50
2023-08-27T16:55:26.618Z,20.50
2023-08-27T16:57:53.967Z,20.50
2023-08-27T17:00:21.613Z,20.40
2023-08-27T17:02:54.336Z,20.40
2023-08-27T17:05:23.562Z,20.40
2023-08-27T17:07:50.551Z,20.30
2023-08-27T17:10:17.631Z,20.20
2023-08-27T17:12:47.220Z,20.20
2023-08-27T17:15:16.013Z,20.10
2023-08-27T17:17:43.529Z,20.10
2023-08-27T17:20:10.933Z,20.00
2023-08-27T17:22:38.730Z,20.00
2023-08-27T17:25:06.087Z,20.00
2023-08-27T17:27:33.058Z,20.00
2023-08-27T17:29:59.777Z,19.90
2023-08-27T17:32:26.603Z,19.80
2023-08-27T17:34:53.656Z,19.70
2023-08-27T17:37:24.681Z,19.70
2023-08-27T17:39:57.525Z,19.60
2023-08-27T17:42:24.359Z,19.60
2023-08-27T17:44:52.105Z,19.50
2023-08-27T17:47:18.954Z,19.50
2023-08-27T17:49:47.841Z,19.50
2023-08-27T17:52:14.594Z,19.50
2023-08-27T17:54:41.543Z,19.50
2023-08-27T17:57:08.262Z,19.50
2023-08-27T17:59:35.213Z,19.50
2023-08-27T18:02:02.010Z,19.60
2023-08-27T18:04:29.339Z,19.50
2023-08-27T18:06:56.035Z,19.50
2023-08-27T18:09:23.036Z,19.40
2023-08-27T18:11:49.725Z,19.40
2023-08-27T18:14:16.604Z,19.30
2023-08-27T18:16:43.290Z,19.20
2023-08-27T18:19:10.191Z,19.20
2023-08-27T18:21:36.898Z,19.10
2023-08-27T18:24:04.064Z,19.00
2023-08-27T18:26:30.763Z,19.00
2023-08-27T18:28:57.635Z,18.90
2023-08-27T18:31:24.383Z,18.90
2023-08-27T18:33:51.269Z,18.90
2023-08-27T18:36:18.230Z,18.80
2023-08-27T18:38:44.936Z,18.70
2023-08-27T18:41:11.965Z,18.70
2023-08-27T18:43:38.719Z,18.60
2023-08-27T18:46:05.687Z,18.60
2023-08-27T18:48:32.471Z,18.60
2023-08-27T18:50:59.382Z,18.50
2023-08-27T18:53:26.113Z,18.50
2023-08-27T18:55:53.131Z,18.50
2023-08-27T18:58:20.400Z,18.40
2023-08-27T19:00:47.345Z,18.40
2023-08-27T19:03:14.109Z,18.30
2023-08-27T19:05:47.862Z,18.30
2023-08-27T19:08:14.638Z,18.20
2023-08-27T19:10:41.584Z,18.10
2023-08-27T19:13:08.533Z,18.10
2023-08-27T19:15:35.617Z,18.10
2023-08-27T19:18:04.232Z,18.10
2023-08-27T19:20:31.755Z,18.10
2023-08-27T19:22:58.579Z,18.10
2023-08-27T19:25:25.621Z,18.00
2023-08-27T19:27:53.897Z,18.00
2023-08-27T19:30:20.750Z,18.00
2023-08-27T19:32:47.596Z,18.00
2023-08-27T19:35:14.662Z,18.00
2023-08-27T19:37:41.623Z,18.00
2023-08-27T19:40:09.286Z,17.90
2023-08-27T19:42:35.998Z,17.90
2023-08-27T19:45:03.154Z,17.90
2023-08-27T19:47:30.416Z,17.90
2023-08-27T19:49:57.355Z,18.00
2023-08-27T19:52:24.101Z,18.10
2023-08-27T19:54:50.949Z,18.10
2023-08-27T19:57:18.021Z,18.10
2023-08-27T19:59:44.758Z,18.10
2023-08-27T20:02:11.680Z,18.20
2023-08-27T20:04:38.396Z,18.20
2023-08-27T20:07:05.227Z,18.30
2023-08-27T20:09:32.026Z,18.30
2023-08-27T20:11:59.004Z,18.30
2023-08-27T20:14:27.516Z,18.30
2023-08-27T20:16:55.496Z,18.20
2023-08-27T20:19:22.276Z,18.20
2023-08-27T20:21:49.152Z,18.20
2023-08-27T20:24:15.834Z,18.20
2023-08-27T20:26:42.677Z,18.10
2023-08-27T20:29:09.408Z,18.10
2023-08-27T20:31:36.213Z,18.00
2023-08-27T20:34:03.348Z,18.00
2023-08-27T20:36:30.370Z,18.00
2023-08-27T20:38:57.055Z,18.00
2023-08-27T20:41:28.056Z,17.90
2023-08-27T20:43:54.878Z,17.90
2023-08-27T20:46:21.759Z,17.80
2023-08-27T20:48:48.485Z,17.80
2023-08-27T20:51:15.310Z,17.80
2023-08-27T20:53:42.279Z,17.80
2023-08-27T20:56:09.043Z,17.70
2023-08-27T20:58:36.020Z,17.70
2023-08-27T21:01:02.837Z,17.60
2023-08-27T21:03:29.854Z,17.60
2023-08-27T21:05:56.553Z,17.60
2023-08-27T21:08:23.556Z,17.60
2023-08-27T21:10:50.366Z,17.50
2023-08-27T21:13:17.423Z,17.50
2023-08-27T21:15:44.227Z,17.50
2023-08-27T21:18:11.310Z,17.50
2023-08-27T21:20:38.138Z,17.50
2023-08-27T21:23:05.458Z,17.40
2023-08-27T21:25:32.235Z,17.40
2023-08-27T21:27:59.188Z,17.40
2023-08-27T21:30:26.036Z,17.40
2023-08-27T21:32:53.011Z,17.40
2023-08-27T21:35:19.794Z,17.30
2023-08-27T21:37:46.707Z,17.30
2023-08-27T21:40:13.409Z,17.30
2023-08-27T21:42:40.351Z,17.30
2023-08-27T21:45:07.874Z,17.30
2023-08-27T21:47:34.795Z,17.20
2023-08-27T21:50:01.592Z,17.20
2023-08-27T21:52:28.330Z,17.20
2023-08-27T21:54:55.193Z,17.20
2023-08-27T21:57:21.848Z,17.10
2023-08-27T21:59:50.293Z,17.10
2023-08-27T22:02:17.720Z,17.10
2023-08-27T22:04:44.976Z,17.10
2023-08-27T22:07:11.685Z,17.10
2023-08-27T22:09:38.570Z,17.10
2023-08-27T22:12:05.779Z,17.00
2023-08-27T22:14:32.892Z,17.00
2023-08-27T22:17:00.000Z,17.00
2023-08-27T22:19:26.939Z,17.00
2023-08-27T22:21:53.656Z,16.90
2023-08-27T22:24:20.599Z,16.90
2023-08-27T22:26:47.479Z,16.90
2023-08-27T22:29:14.409Z,16.90
2023-08-27T22:31:41.180Z,16.80
2023-08-27T22:34:08.121Z,16.80
2023-08-27T22:36:34.797Z,16.80
2023-08-27T22:39:01.757Z,16.80
2023-08-27T22:41:29.065Z,16.70
2023-08-27T22:43:55.970Z,16.70
2023-08-27T22:46:22.684Z,16.70
2023-08-27T22:48:49.572Z,16.70
2023-08-27T22:51:16.297Z,16.70
2023-08-27T22:53:43.659Z,16.70
2023-08-27T22:56:10.437Z,16.60
2023-08-27T22:58:37.210Z,16.60
2023-08-27T23:01:04.518Z,16.60
2023-08-27T23:03:31.361Z,16.60
2023-08-27T23:05:58.409Z,16.60
2023-08-27T23:08:25.170Z,16.60
2023-08-27T23:10:54.554Z,16.60
2023-08-27T23:13:24.022Z,16.60
2023-08-27T23:15:50.896Z,16.60
2023-08-27T23:18:18.415Z,16.60
2023-08-27T23:20:46.401Z,16.60
2023-08-27T23:23:13.175Z,16.50
2023-08-27T23:25:42.367Z,16.50
2023-08-27T23:28:09.969Z,16.50
2023-08-27T23:30:37.432Z,16.40
2023-08-27T23:33:06.322Z,16.30
2023-08-27T23:35:35.306Z,16.30
2023-08-27T23:38:02.296Z,16.30
2023-08-27T23:40:29.510Z,16.30
2023-08-27T23:42:56.433Z,16.20
2023-08-27T23:45:23.413Z,16.20
2023-08-27T23:47:50.219Z,16.20
2023-08-27T23:50:17.253Z,16.20
2023-08-27T23:52:44.120Z,16.20
2023-08-27T23:55:11.039Z,16.10
2023-08-27T23:57:37.944Z,16.10
